sensor_id;sensor_type;location;lat;lon;timestamp;P1;durP1;ratioP1;P2;durP2;ratioP2
64011;SDS011;50211;52.768;12.124;2023-03-31T00:00:25;5.67;;;2.30;;
64011;SDS011;50211;52.768;12.124;2023-03-31T00:02:51;4.13;;;1.80;;
64011;SDS011;50211;52.768;12.124;2023-03-31T00:05:18;2.93;;;2.10;;
64011;SDS011;50211;52.768;12.124;2023-03-31T00:07:45;4.53;;;2.05;;
64011;SDS011;50211;52.768;12.124;2023-03-31T00:10:13;5.60;;;1.90;;
64011;SDS011;50211;52.768;12.124;2023-03-31T00:12:39;5.15;;;1.67;;
64011;SDS011;50211;52.768;12.124;2023-03-31T00:15:05;7.33;;;1.93;;
64011;SDS011;50211;52.768;12.124;2023-03-31T00:17:31;5.50;;;2.17;;
64011;SDS011;50211;52.768;12.124;2023-03-31T00:19:57;6.00;;;1.60;;
64011;SDS011;50211;52.768;12.124;2023-03-31T00:22:25;10.13;;;2.20;;
64011;SDS011;50211;52.768;12.124;2023-03-31T00:24:54;8.37;;;2.13;;
64011;SDS011;50211;52.768;12.124;2023-03-31T00:27:19;5.77;;;1.73;;
64011;SDS011;50211;52.768;12.124;2023-03-31T00:29:45;3.33;;;1.80;;
64011;SDS011;50211;52.768;12.124;2023-03-31T00:32:12;8.03;;;1.90;;
64011;SDS011;50211;52.768;12.124;2023-03-31T00:34:38;7.13;;;1.87;;
64011;SDS011;50211;52.768;12.124;2023-03-31T00:37:04;4.40;;;1.60;;
64011;SDS011;50211;52.768;12.124;2023-03-31T00:39:30;5.23;;;1.50;;
64011;SDS011;50211;52.768;12.124;2023-03-31T00:42:00;10.17;;;2.03;;
64011;SDS011;50211;52.768;12.124;2023-03-31T00:44:27;5.97;;;1.50;;
64011;SDS011;50211;52.768;12.124;2023-03-31T00:49:24;4.60;;;1.50;;
64011;SDS011;50211;52.768;12.124;2023-03-31T00:52:04;10.05;;;1.95;;
64011;SDS011;50211;52.768;12.124;2023-03-31T00:54:37;6.23;;;2.30;;
64011;SDS011;50211;52.768;12.124;2023-03-31T00:57:06;4.63;;;1.67;;
64011;SDS011;50211;52.768;12.124;2023-03-31T00:59:35;2.93;;;1.63;;
64011;SDS011;50211;52.768;12.124;2023-03-31T01:02:05;6.53;;;1.80;;
64011;SDS011;50211;52.768;12.124;2023-03-31T01:04:33;7.63;;;1.40;;
64011;SDS011;50211;52.768;12.124;2023-03-31T01:07:13;8.23;;;2.10;;
64011;SDS011;50211;52.768;12.124;2023-03-31T01:09:41;6.03;;;1.70;;
64011;SDS011;50211;52.768;12.124;2023-03-31T01:12:11;5.03;;;1.50;;
64011;SDS011;50211;52.768;12.124;2023-03-31T01:14:37;8.93;;;1.70;;
64011;SDS011;50211;52.768;12.124;2023-03-31T01:17:03;6.57;;;1.70;;
64011;SDS011;50211;52.768;12.124;2023-03-31T01:19:32;5.50;;;1.30;;
64011;SDS011;50211;52.768;12.124;2023-03-31T01:22:21;9.30;;;1.73;;
64011;SDS011;50211;52.768;12.124;2023-03-31T01:25:19;4.87;;;1.30;;
64011;SDS011;50211;52.768;12.124;2023-03-31T01:28:02;2.90;;;1.60;;
64011;SDS011;50211;52.768;12.124;2023-03-31T01:33:39;9.23;;;1.80;;
64011;SDS011;50211;52.768;12.124;2023-03-31T01:36:22;5.07;;;1.90;;
64011;SDS011;50211;52.768;12.124;2023-03-31T01:44:42;7.60;;;2.03;;
64011;SDS011;50211;52.768;12.124;2023-03-31T01:47:23;6.70;;;2.30;;
64011;SDS011;50211;52.768;12.124;2023-03-31T01:55:28;4.13;;;1.60;;
64011;SDS011;50211;52.768;12.124;2023-03-31T01:58:05;7.50;;;2.00;;
64011;SDS011;50211;52.768;12.124;2023-03-31T02:00:37;5.47;;;1.97;;
64011;SDS011;50211;52.768;12.124;2023-03-31T02:03:13;4.20;;;1.97;;
64011;SDS011;50211;52.768;12.124;2023-03-31T02:05:44;10.03;;;2.63;;
64011;SDS011;50211;52.768;12.124;2023-03-31T02:08:19;7.33;;;2.07;;
64011;SDS011;50211;52.768;12.124;2023-03-31T02:10:58;3.20;;;1.90;;
64011;SDS011;50211;52.768;12.124;2023-03-31T02:13:25;4.10;;;1.77;;
64011;SDS011;50211;52.768;12.124;2023-03-31T02:15:56;2.43;;;1.87;;
64011;SDS011;50211;52.768;12.124;2023-03-31T02:18:27;5.03;;;1.90;;
64011;SDS011;50211;52.768;12.124;2023-03-31T02:20:57;3.90;;;1.60;;
64011;SDS011;50211;52.768;12.124;2023-03-31T02:23:25;8.10;;;1.93;;
64011;SDS011;50211;52.768;12.124;2023-03-31T02:25:58;6.73;;;2.00;;
64011;SDS011;50211;52.768;12.124;2023-03-31T02:28:34;5.87;;;1.70;;
64011;SDS011;50211;52.768;12.124;2023-03-31T02:31:05;4.80;;;2.07;;
64011;SDS011;50211;52.768;12.124;2023-03-31T02:33:46;5.20;;;2.30;;
64011;SDS011;50211;52.768;12.124;2023-03-31T02:36:12;4.77;;;1.80;;
64011;SDS011;50211;52.768;12.124;2023-03-31T02:38:40;8.03;;;1.83;;
64011;SDS011;50211;52.768;12.124;2023-03-31T02:41:09;5.00;;;1.80;;
64011;SDS011;50211;52.768;12.124;2023-03-31T02:43:35;7.03;;;2.20;;
64011;SDS011;50211;52.768;12.124;2023-03-31T02:46:01;5.05;;;1.80;;
64011;SDS011;50211;52.768;12.124;2023-03-31T02:48:28;10.73;;;2.20;;
64011;SDS011;50211;52.768;12.124;2023-03-31T02:51:03;6.47;;;2.07;;
64011;SDS011;50211;52.768;12.124;2023-03-31T02:56:52;4.33;;;2.20;;
64011;SDS011;50211;52.768;12.124;2023-03-31T03:02:54;4.10;;;1.67;;
64011;SDS011;50211;52.768;12.124;2023-03-31T03:05:19;7.43;;;1.97;;
64011;SDS011;50211;52.768;12.124;2023-03-31T03:08:04;6.67;;;2.10;;
64011;SDS011;50211;52.768;12.124;2023-03-31T03:15:59;4.43;;;2.07;;
64011;SDS011;50211;52.768;12.124;2023-03-31T03:18:32;4.90;;;1.73;;
64011;SDS011;50211;52.768;12.124;2023-03-31T03:20:58;11.10;;;2.15;;
64011;SDS011;50211;52.768;12.124;2023-03-31T03:23:23;6.40;;;2.20;;
64011;SDS011;50211;52.768;12.124;2023-03-31T03:25:49;4.23;;;2.10;;
64011;SDS011;50211;52.768;12.124;2023-03-31T03:28:15;4.93;;;2.07;;
64011;SDS011;50211;52.768;12.124;2023-03-31T03:30:41;5.43;;;2.10;;
64011;SDS011;50211;52.768;12.124;2023-03-31T03:33:06;5.47;;;2.70;;
64011;SDS011;50211;52.768;12.124;2023-03-31T03:35:32;7.43;;;2.40;;
64011;SDS011;50211;52.768;12.124;2023-03-31T03:37:58;4.70;;;1.83;;
64011;SDS011;50211;52.768;12.124;2023-03-31T03:40:24;4.73;;;1.70;;
64011;SDS011;50211;52.768;12.124;2023-03-31T03:42:49;3.57;;;1.90;;
64011;SDS011;50211;52.768;12.124;2023-03-31T03:45:15;2.00;;;1.40;;
64011;SDS011;50211;52.768;12.124;2023-03-31T03:47:40;5.17;;;1.73;;
64011;SDS011;50211;52.768;12.124;2023-03-31T03:50:06;8.80;;;2.00;;
64011;SDS011;50211;52.768;12.124;2023-03-31T03:52:32;8.77;;;2.37;;
64011;SDS011;50211;52.768;12.124;2023-03-31T03:54:58;6.33;;;1.80;;
64011;SDS011;50211;52.768;12.124;2023-03-31T03:57:25;5.17;;;1.90;;
64011;SDS011;50211;52.768;12.124;2023-03-31T03:59:51;4.53;;;1.60;;
64011;SDS011;50211;52.768;12.124;2023-03-31T04:02:16;4.40;;;2.17;;
64011;SDS011;50211;52.768;12.124;2023-03-31T04:04:42;7.70;;;1.67;;
64011;SDS011;50211;52.768;12.124;2023-03-31T04:07:07;5.27;;;1.90;;
64011;SDS011;50211;52.768;12.124;2023-03-31T04:09:33;3.30;;;2.00;;
64011;SDS011;50211;52.768;12.124;2023-03-31T04:11:58;5.13;;;1.97;;
64011;SDS011;50211;52.768;12.124;2023-03-31T04:14:24;8.17;;;1.90;;
64011;SDS011;50211;52.768;12.124;2023-03-31T04:16:50;10.03;;;2.07;;
64011;SDS011;50211;52.768;12.124;2023-03-31T04:19:15;3.00;;;1.50;;
64011;SDS011;50211;52.768;12.124;2023-03-31T04:21:41;4.93;;;1.80;;
64011;SDS011;50211;52.768;12.124;2023-03-31T04:24:14;3.90;;;1.50;;
64011;SDS011;50211;52.768;12.124;2023-03-31T04:26:45;7.67;;;2.10;;
64011;SDS011;50211;52.768;12.124;2023-03-31T04:29:14;9.50;;;2.20;;
64011;SDS011;50211;52.768;12.124;2023-03-31T04:31:41;13.40;;;2.97;;
64011;SDS011;50211;52.768;12.124;2023-03-31T04:34:07;5.97;;;2.07;;
64011;SDS011;50211;52.768;12.124;2023-03-31T04:36:37;5.30;;;1.87;;
64011;SDS011;50211;52.768;12.124;2023-03-31T04:39:10;9.03;;;2.27;;
64011;SDS011;50211;52.768;12.124;2023-03-31T04:41:40;3.77;;;1.63;;
64011;SDS011;50211;52.768;12.124;2023-03-31T04:44:06;5.97;;;2.23;;
64011;SDS011;50211;52.768;12.124;2023-03-31T04:46:32;4.40;;;2.40;;
64011;SDS011;50211;52.768;12.124;2023-03-31T04:48:59;4.20;;;1.50;;
64011;SDS011;50211;52.768;12.124;2023-03-31T04:51:25;3.37;;;1.50;;
64011;SDS011;50211;52.768;12.124;2023-03-31T04:53:51;5.30;;;1.80;;
64011;SDS011;50211;52.768;12.124;2023-03-31T04:56:17;3.40;;;1.50;;
64011;SDS011;50211;52.768;12.124;2023-03-31T04:58:42;7.63;;;1.97;;
64011;SDS011;50211;52.768;12.124;2023-03-31T05:01:08;5.23;;;2.10;;
64011;SDS011;50211;52.768;12.124;2023-03-31T05:03:34;3.43;;;1.63;;
64011;SDS011;50211;52.768;12.124;2023-03-31T05:05:59;3.07;;;1.30;;
64011;SDS011;50211;52.768;12.124;2023-03-31T05:08:25;3.33;;;1.73;;
64011;SDS011;50211;52.768;12.124;2023-03-31T05:10:51;6.17;;;2.30;;
64011;SDS011;50211;52.768;12.124;2023-03-31T05:13:17;4.00;;;2.17;;
64011;SDS011;50211;52.768;12.124;2023-03-31T05:15:43;4.40;;;1.90;;
64011;SDS011;50211;52.768;12.124;2023-03-31T05:18:09;4.37;;;1.60;;
64011;SDS011;50211;52.768;12.124;2023-03-31T05:20:35;6.70;;;2.20;;
64011;SDS011;50211;52.768;12.124;2023-03-31T05:23:00;4.73;;;1.70;;
64011;SDS011;50211;52.768;12.124;2023-03-31T05:25:26;5.93;;;1.43;;
64011;SDS011;50211;52.768;12.124;2023-03-31T05:27:56;6.93;;;1.50;;
64011;SDS011;50211;52.768;12.124;2023-03-31T05:30:23;2.47;;;1.17;;
64011;SDS011;50211;52.768;12.124;2023-03-31T05:32:50;5.70;;;1.63;;
64011;SDS011;50211;52.768;12.124;2023-03-31T05:35:16;3.17;;;1.47;;
64011;SDS011;50211;52.768;12.124;2023-03-31T05:37:42;3.13;;;1.43;;
64011;SDS011;50211;52.768;12.124;2023-03-31T05:40:07;4.20;;;1.50;;
64011;SDS011;50211;52.768;12.124;2023-03-31T05:42:34;2.40;;;1.40;;
64011;SDS011;50211;52.768;12.124;2023-03-31T05:45:00;7.33;;;1.10;;
64011;SDS011;50211;52.768;12.124;2023-03-31T05:47:26;5.87;;;1.70;;
64011;SDS011;50211;52.768;12.124;2023-03-31T05:49:51;2.47;;;1.30;;
64011;SDS011;50211;52.768;12.124;2023-03-31T05:52:17;3.63;;;1.40;;
64011;SDS011;50211;52.768;12.124;2023-03-31T05:54:42;7.10;;;1.40;;
64011;SDS011;50211;52.768;12.124;2023-03-31T05:57:08;2.53;;;1.27;;
64011;SDS011;50211;52.768;12.124;2023-03-31T05:59:34;4.80;;;1.20;;
64011;SDS011;50211;52.768;12.124;2023-03-31T06:02:00;4.20;;;1.50;;
64011;SDS011;50211;52.768;12.124;2023-03-31T06:04:26;5.50;;;1.20;;
64011;SDS011;50211;52.768;12.124;2023-03-31T06:06:52;2.83;;;1.30;;
64011;SDS011;50211;52.768;12.124;2023-03-31T06:09:18;5.90;;;1.47;;
64011;SDS011;50211;52.768;12.124;2023-03-31T06:11:43;6.60;;;1.73;;
64011;SDS011;50211;52.768;12.124;2023-03-31T06:14:10;6.20;;;1.10;;
64011;SDS011;50211;52.768;12.124;2023-03-31T06:16:35;2.93;;;1.33;;
64011;SDS011;50211;52.768;12.124;2023-03-31T06:19:01;4.43;;;1.00;;
64011;SDS011;50211;52.768;12.124;2023-03-31T06:21:26;5.67;;;1.60;;
64011;SDS011;50211;52.768;12.124;2023-03-31T06:23:52;4.83;;;1.50;;
64011;SDS011;50211;52.768;12.124;2023-03-31T06:26:20;4.23;;;1.30;;
64011;SDS011;50211;52.768;12.124;2023-03-31T06:28:46;5.77;;;1.67;;
64011;SDS011;50211;52.768;12.124;2023-03-31T06:31:17;4.37;;;1.00;;
64011;SDS011;50211;52.768;12.124;2023-03-31T06:33:45;6.15;;;1.20;;
64011;SDS011;50211;52.768;12.124;2023-03-31T06:36:11;4.70;;;1.10;;
64011;SDS011;50211;52.768;12.124;2023-03-31T06:38:38;5.97;;;1.10;;
64011;SDS011;50211;52.768;12.124;2023-03-31T06:41:04;5.47;;;1.23;;
64011;SDS011;50211;52.768;12.124;2023-03-31T06:43:31;4.95;;;1.40;;
64011;SDS011;50211;52.768;12.124;2023-03-31T06:45:57;1.92;;;0.93;;
64011;SDS011;50211;52.768;12.124;2023-03-31T06:48:23;5.18;;;1.20;;
64011;SDS011;50211;52.768;12.124;2023-03-31T06:50:49;2.73;;;1.33;;
64011;SDS011;50211;52.768;12.124;2023-03-31T06:53:16;9.18;;;1.27;;
64011;SDS011;50211;52.768;12.124;2023-03-31T06:55:42;4.55;;;1.30;;
64011;SDS011;50211;52.768;12.124;2023-03-31T06:58:07;3.60;;;2.00;;
64011;SDS011;50211;52.768;12.124;2023-03-31T07:00:33;5.00;;;0.93;;
64011;SDS011;50211;52.768;12.124;2023-03-31T07:02:58;3.53;;;1.20;;
64011;SDS011;50211;52.768;12.124;2023-03-31T07:05:25;6.18;;;1.52;;
64011;SDS011;50211;52.768;12.124;2023-03-31T07:07:52;2.70;;;1.23;;
64011;SDS011;50211;52.768;12.124;2023-03-31T07:10:19;7.20;;;1.35;;
64011;SDS011;50211;52.768;12.124;2023-03-31T07:12:44;2.50;;;1.10;;
64011;SDS011;50211;52.768;12.124;2023-03-31T07:15:10;3.47;;;1.13;;
64011;SDS011;50211;52.768;12.124;2023-03-31T07:17:35;3.65;;;1.50;;
64011;SDS011;50211;52.768;12.124;2023-03-31T07:20:02;3.83;;;1.30;;
64011;SDS011;50211;52.768;12.124;2023-03-31T07:22:33;4.65;;;1.60;;
64011;SDS011;50211;52.768;12.124;2023-03-31T07:24:59;3.70;;;1.40;;
64011;SDS011;50211;52.768;12.124;2023-03-31T08:28:00;6.03;;;1.38;;
64011;SDS011;50211;52.768;12.124;2023-03-31T08:30:26;5.30;;;1.55;;
64011;SDS011;50211;52.768;12.124;2023-03-31T08:32:51;5.32;;;1.50;;
64011;SDS011;50211;52.768;12.124;2023-03-31T08:35:17;6.57;;;1.92;;
64011;SDS011;50211;52.768;12.124;2023-03-31T08:37:42;3.25;;;1.27;;
64011;SDS011;50211;52.768;12.124;2023-03-31T08:40:11;6.88;;;1.35;;
64011;SDS011;50211;52.768;12.124;2023-03-31T08:42:45;4.97;;;1.70;;
64011;SDS011;50211;52.768;12.124;2023-03-31T08:45:33;6.82;;;1.30;;
64011;SDS011;50211;52.768;12.124;2023-03-31T08:48:03;4.70;;;1.10;;
64011;SDS011;50211;52.768;12.124;2023-03-31T08:50:49;3.25;;;1.25;;
64011;SDS011;50211;52.768;12.124;2023-03-31T08:53:25;7.43;;;1.35;;
64011;SDS011;50211;52.768;12.124;2023-03-31T08:55:54;4.68;;;1.70;;
64011;SDS011;50211;52.768;12.124;2023-03-31T09:01:01;2.10;;;1.02;;
64011;SDS011;50211;52.768;12.124;2023-03-31T09:06:38;7.75;;;2.17;;
64011;SDS011;50211;52.768;12.124;2023-03-31T09:09:57;3.30;;;1.20;;
64011;SDS011;50211;52.768;12.124;2023-03-31T09:12:22;6.72;;;1.33;;
64011;SDS011;50211;52.768;12.124;2023-03-31T09:17:32;4.88;;;1.40;;
64011;SDS011;50211;52.768;12.124;2023-03-31T09:20:15;6.07;;;1.67;;
64011;SDS011;50211;52.768;12.124;2023-03-31T09:22:46;4.93;;;1.40;;
64011;SDS011;50211;52.768;12.124;2023-03-31T09:25:22;5.47;;;1.70;;
64011;SDS011;50211;52.768;12.124;2023-03-31T09:27:51;7.43;;;1.65;;
64011;SDS011;50211;52.768;12.124;2023-03-31T09:30:21;28.85;;;8.23;;
64011;SDS011;50211;52.768;12.124;2023-03-31T09:33:02;93.97;;;23.02;;
64011;SDS011;50211;52.768;12.124;2023-03-31T09:35:47;52.05;;;11.63;;
64011;SDS011;50211;52.768;12.124;2023-03-31T09:38:13;10.73;;;3.25;;
64011;SDS011;50211;52.768;12.124;2023-03-31T09:40:40;18.75;;;4.55;;
64011;SDS011;50211;52.768;12.124;2023-03-31T09:43:07;19.60;;;6.78;;
64011;SDS011;50211;52.768;12.124;2023-03-31T09:45:42;3.05;;;1.67;;
64011;SDS011;50211;52.768;12.124;2023-03-31T09:48:13;6.45;;;1.90;;
64011;SDS011;50211;52.768;12.124;2023-03-31T09:50:44;7.75;;;1.70;;
64011;SDS011;50211;52.768;12.124;2023-03-31T09:53:17;4.78;;;1.80;;
64011;SDS011;50211;52.768;12.124;2023-03-31T09:55:53;6.10;;;1.60;;
64011;SDS011;50211;52.768;12.124;2023-03-31T09:58:24;7.70;;;1.40;;
64011;SDS011;50211;52.768;12.124;2023-03-31T10:01:00;5.65;;;2.00;;
64011;SDS011;50211;52.768;12.124;2023-03-31T10:03:28;6.50;;;1.60;;
64011;SDS011;50211;52.768;12.124;2023-03-31T10:06:00;11.00;;;2.15;;
64011;SDS011;50211;52.768;12.124;2023-03-31T10:13:26;6.40;;;1.80;;
64011;SDS011;50211;52.768;12.124;2023-03-31T10:16:00;5.90;;;1.58;;
64011;SDS011;50211;52.768;12.124;2023-03-31T10:18:32;5.30;;;1.42;;
64011;SDS011;50211;52.768;12.124;2023-03-31T10:21:03;7.03;;;1.77;;
64011;SDS011;50211;52.768;12.124;2023-03-31T10:23:31;7.55;;;1.92;;
64011;SDS011;50211;52.768;12.124;2023-03-31T10:25:59;10.45;;;1.30;;
64011;SDS011;50211;52.768;12.124;2023-03-31T10:28:27;3.65;;;1.30;;
64011;SDS011;50211;52.768;12.124;2023-03-31T10:30:57;2.92;;;1.00;;
64011;SDS011;50211;52.768;12.124;2023-03-31T10:33:29;3.90;;;1.73;;
64011;SDS011;50211;52.768;12.124;2023-03-31T10:35:59;6.95;;;1.70;;
64011;SDS011;50211;52.768;12.124;2023-03-31T10:38:33;9.63;;;1.33;;
64011;SDS011;50211;52.768;12.124;2023-03-31T10:41:06;4.85;;;1.10;;
64011;SDS011;50211;52.768;12.124;2023-03-31T10:43:42;6.38;;;2.50;;
64011;SDS011;50211;52.768;12.124;2023-03-31T10:46:12;8.90;;;2.33;;
64011;SDS011;50211;52.768;12.124;2023-03-31T10:48:39;4.72;;;1.45;;
64011;SDS011;50211;52.768;12.124;2023-03-31T10:53:46;8.05;;;2.00;;
64011;SDS011;50211;52.768;12.124;2023-03-31T11:04:46;10.90;;;1.98;;
64011;SDS011;50211;52.768;12.124;2023-03-31T11:12:59;9.57;;;2.80;;
64011;SDS011;50211;52.768;12.124;2023-03-31T11:16:00;4.38;;;1.90;;
64011;SDS011;50211;52.768;12.124;2023-03-31T11:21:45;10.20;;;2.08;;
64011;SDS011;50211;52.768;12.124;2023-03-31T11:24:28;3.95;;;1.50;;
64011;SDS011;50211;52.768;12.124;2023-03-31T11:27:38;6.00;;;1.95;;
64011;SDS011;50211;52.768;12.124;2023-03-31T11:30:23;5.03;;;1.65;;
64011;SDS011;50211;52.768;12.124;2023-03-31T11:36:01;5.07;;;2.10;;
64011;SDS011;50211;52.768;12.124;2023-03-31T11:41:44;2.88;;;1.40;;
64011;SDS011;50211;52.768;12.124;2023-03-31T11:44:22;11.43;;;1.55;;
64011;SDS011;50211;52.768;12.124;2023-03-31T11:47:05;5.15;;;1.70;;
64011;SDS011;50211;52.768;12.124;2023-03-31T11:49:36;5.45;;;1.80;;
64011;SDS011;50211;52.768;12.124;2023-03-31T12:00:42;4.05;;;1.67;;
64011;SDS011;50211;52.768;12.124;2023-03-31T12:03:00;6.40;;;1.92;;
64011;SDS011;50211;52.768;12.124;2023-03-31T12:05:36;5.97;;;1.90;;
64011;SDS011;50211;52.768;12.124;2023-03-31T12:10:42;5.72;;;1.90;;
64011;SDS011;50211;52.768;12.124;2023-03-31T12:16:51;2.88;;;1.70;;
64011;SDS011;50211;52.768;12.124;2023-03-31T12:19:33;4.93;;;1.90;;
64011;SDS011;50211;52.768;12.124;2023-03-31T12:22:12;8.25;;;2.30;;
64011;SDS011;50211;52.768;12.124;2023-03-31T12:24:46;6.50;;;2.00;;
64011;SDS011;50211;52.768;12.124;2023-03-31T12:27:16;4.57;;;1.83;;
64011;SDS011;50211;52.768;12.124;2023-03-31T12:29:47;7.53;;;2.25;;
64011;SDS011;50211;52.768;12.124;2023-03-31T12:32:23;10.50;;;2.67;;
64011;SDS011;50211;52.768;12.124;2023-03-31T12:35:00;5.43;;;2.00;;
64011;SDS011;50211;52.768;12.124;2023-03-31T12:43:20;3.90;;;1.92;;
64011;SDS011;50211;52.768;12.124;2023-03-31T12:59:28;6.97;;;2.60;;
64011;SDS011;50211;52.768;12.124;2023-03-31T13:04:45;7.28;;;1.80;;
64011;SDS011;50211;52.768;12.124;2023-03-31T13:12:41;2.25;;;1.23;;
64011;SDS011;50211;52.768;12.124;2023-03-31T13:15:35;2.15;;;1.35;;
64011;SDS011;50211;52.768;12.124;2023-03-31T13:18:02;5.28;;;1.80;;
64011;SDS011;50211;52.768;12.124;2023-03-31T13:20:30;7.43;;;1.50;;
64011;SDS011;50211;52.768;12.124;2023-03-31T13:23:00;1.48;;;0.90;;
64011;SDS011;50211;52.768;12.124;2023-03-31T13:25:42;1.30;;;0.90;;
64011;SDS011;50211;52.768;12.124;2023-03-31T13:28:13;3.92;;;1.50;;
64011;SDS011;50211;52.768;12.124;2023-03-31T13:30:51;5.55;;;2.50;;
64011;SDS011;50211;52.768;12.124;2023-03-31T13:35:50;3.25;;;1.70;;
64011;SDS011;50211;52.768;12.124;2023-03-31T13:41:29;3.05;;;1.20;;
64011;SDS011;50211;52.768;12.124;2023-03-31T13:44:33;6.28;;;1.73;;
64011;SDS011;50211;52.768;12.124;2023-03-31T13:50:04;2.08;;;1.27;;
64011;SDS011;50211;52.768;12.124;2023-03-31T13:53:09;2.58;;;0.82;;
64011;SDS011;50211;52.768;12.124;2023-03-31T14:01:47;1.77;;;1.67;;
64011;SDS011;50211;52.768;12.124;2023-03-31T14:07:20;0.52;;;0.40;;
64011;SDS011;50211;52.768;12.124;2023-03-31T14:09:52;1.13;;;0.57;;
64011;SDS011;50211;52.768;12.124;2023-03-31T14:12:28;3.40;;;1.90;;
64011;SDS011;50211;52.768;12.124;2023-03-31T14:14:59;0.85;;;0.70;;
64011;SDS011;50211;52.768;12.124;2023-03-31T14:17:32;2.28;;;1.35;;
64011;SDS011;50211;52.768;12.124;2023-03-31T14:20:06;1.05;;;0.70;;
64011;SDS011;50211;52.768;12.124;2023-03-31T14:22:57;4.53;;;1.10;;
64011;SDS011;50211;52.768;12.124;2023-03-31T14:28:25;1.25;;;0.88;;
64011;SDS011;50211;52.768;12.124;2023-03-31T14:31:25;3.45;;;1.17;;
64011;SDS011;50211;52.768;12.124;2023-03-31T14:37:03;2.55;;;0.60;;
64011;SDS011;50211;52.768;12.124;2023-03-31T14:39:56;0.60;;;0.55;;
64011;SDS011;50211;52.768;12.124;2023-03-31T14:42:28;1.45;;;0.88;;
64011;SDS011;50211;52.768;12.124;2023-03-31T14:45:02;1.40;;;0.70;;
64011;SDS011;50211;52.768;12.124;2023-03-31T14:47:33;2.95;;;0.75;;
64011;SDS011;50211;52.768;12.124;2023-03-31T14:52:39;1.02;;;0.60;;
64011;SDS011;50211;52.768;12.124;2023-03-31T14:55:14;2.50;;;0.60;;
64011;SDS011;50211;52.768;12.124;2023-03-31T14:57:40;1.90;;;0.60;;
64011;SDS011;50211;52.768;12.124;2023-03-31T15:00:10;0.82;;;0.60;;
64011;SDS011;50211;52.768;12.124;2023-03-31T15:02:40;5.28;;;3.13;;
64011;SDS011;50211;52.768;12.124;2023-03-31T15:05:08;1.88;;;0.70;;
64011;SDS011;50211;52.768;12.124;2023-03-31T15:07:43;7.22;;;3.65;;
64011;SDS011;50211;52.768;12.124;2023-03-31T15:10:11;9.77;;;6.10;;
64011;SDS011;50211;52.768;12.124;2023-03-31T15:12:43;10.90;;;6.93;;
64011;SDS011;50211;52.768;12.124;2023-03-31T15:15:09;0.50;;;0.50;;
64011;SDS011;50211;52.768;12.124;2023-03-31T15:17:38;1.65;;;0.77;;
64011;SDS011;50211;52.768;12.124;2023-03-31T15:20:25;1.13;;;0.63;;
64011;SDS011;50211;52.768;12.124;2023-03-31T15:22:54;3.17;;;0.70;;
64011;SDS011;50211;52.768;12.124;2023-03-31T15:25:20;1.48;;;0.70;;
64011;SDS011;50211;52.768;12.124;2023-03-31T15:28:10;2.85;;;1.00;;
64011;SDS011;50211;52.768;12.124;2023-03-31T15:30:37;2.33;;;0.70;;
64011;SDS011;50211;52.768;12.124;2023-03-31T15:33:05;0.85;;;0.70;;
64011;SDS011;50211;52.768;12.124;2023-03-31T15:35:35;1.90;;;0.80;;
64011;SDS011;50211;52.768;12.124;2023-03-31T15:38:04;0.60;;;0.60;;
64011;SDS011;50211;52.768;12.124;2023-03-31T15:40:31;0.77;;;0.70;;
64011;SDS011;50211;52.768;12.124;2023-03-31T15:46:24;3.67;;;1.00;;
64011;SDS011;50211;52.768;12.124;2023-03-31T15:49:20;1.48;;;1.33;;
64011;SDS011;50211;52.768;12.124;2023-03-31T15:51:48;1.10;;;0.88;;
64011;SDS011;50211;52.768;12.124;2023-03-31T15:57:01;3.25;;;2.33;;
64011;SDS011;50211;52.768;12.124;2023-03-31T15:59:30;2.65;;;1.00;;
64011;SDS011;50211;52.768;12.124;2023-03-31T16:02:24;2.15;;;1.00;;
64011;SDS011;50211;52.768;12.124;2023-03-31T16:04:54;2.97;;;1.08;;
64011;SDS011;50211;52.768;12.124;2023-03-31T16:12:34;1.75;;;1.08;;
64011;SDS011;50211;52.768;12.124;2023-03-31T16:15:13;1.70;;;0.73;;
64011;SDS011;50211;52.768;12.124;2023-03-31T16:20:31;2.38;;;1.02;;
64011;SDS011;50211;52.768;12.124;2023-03-31T16:23:10;1.10;;;1.05;;
64011;SDS011;50211;52.768;12.124;2023-03-31T16:25:39;1.42;;;1.17;;
64011;SDS011;50211;52.768;12.124;2023-03-31T16:28:05;1.40;;;0.70;;
64011;SDS011;50211;52.768;12.124;2023-03-31T16:30:34;2.97;;;0.90;;
64011;SDS011;50211;52.768;12.124;2023-03-31T16:33:07;0.70;;;0.70;;
64011;SDS011;50211;52.768;12.124;2023-03-31T16:35:54;1.42;;;0.95;;
64011;SDS011;50211;52.768;12.124;2023-03-31T16:38:23;2.28;;;0.68;;
64011;SDS011;50211;52.768;12.124;2023-03-31T16:40:51;0.95;;;0.85;;
64011;SDS011;50211;52.768;12.124;2023-03-31T16:45:55;3.55;;;1.13;;
64011;SDS011;50211;52.768;12.124;2023-03-31T16:48:26;1.85;;;0.98;;
64011;SDS011;50211;52.768;12.124;2023-03-31T16:50:53;1.17;;;0.90;;
64011;SDS011;50211;52.768;12.124;2023-03-31T16:53:22;2.15;;;0.80;;
64011;SDS011;50211;52.768;12.124;2023-03-31T16:55:50;1.13;;;0.90;;
64011;SDS011;50211;52.768;12.124;2023-03-31T16:58:16;2.15;;;0.80;;
64011;SDS011;50211;52.768;12.124;2023-03-31T17:00:42;4.35;;;1.63;;
64011;SDS011;50211;52.768;12.124;2023-03-31T17:03:09;1.83;;;0.98;;
64011;SDS011;50211;52.768;12.124;2023-03-31T17:05:39;2.55;;;1.23;;
64011;SDS011;50211;52.768;12.124;2023-03-31T17:08:06;3.22;;;1.33;;
64011;SDS011;50211;52.768;12.124;2023-03-31T17:10:32;4.93;;;1.92;;
64011;SDS011;50211;52.768;12.124;2023-03-31T17:12:58;3.33;;;2.17;;
64011;SDS011;50211;52.768;12.124;2023-03-31T17:15:24;3.78;;;2.00;;
64011;SDS011;50211;52.768;12.124;2023-03-31T17:17:50;8.05;;;2.38;;
64011;SDS011;50211;52.768;12.124;2023-03-31T17:20:16;4.55;;;2.17;;
64011;SDS011;50211;52.768;12.124;2023-03-31T17:22:42;3.42;;;2.50;;
64011;SDS011;50211;52.768;12.124;2023-03-31T17:25:07;4.47;;;2.50;;
64011;SDS011;50211;52.768;12.124;2023-03-31T17:27:33;2.47;;;2.05;;
64011;SDS011;50211;52.768;12.124;2023-03-31T17:29:59;3.67;;;2.13;;
64011;SDS011;50211;52.768;12.124;2023-03-31T17:32:24;4.20;;;2.17;;
64011;SDS011;50211;52.768;12.124;2023-03-31T17:34:50;5.90;;;2.42;;
64011;SDS011;50211;52.768;12.124;2023-03-31T17:37:16;2.72;;;1.80;;
64011;SDS011;50211;52.768;12.124;2023-03-31T17:39:42;2.17;;;1.60;;
64011;SDS011;50211;52.768;12.124;2023-03-31T17:42:09;2.58;;;1.40;;
64011;SDS011;50211;52.768;12.124;2023-03-31T17:44:35;2.42;;;1.70;;
64011;SDS011;50211;52.768;12.124;2023-03-31T17:47:01;2.85;;;1.40;;
64011;SDS011;50211;52.768;12.124;2023-03-31T17:49:26;2.42;;;1.95;;
64011;SDS011;50211;52.768;12.124;2023-03-31T17:51:52;3.50;;;2.70;;
64011;SDS011;50211;52.768;12.124;2023-03-31T17:54:18;3.63;;;1.67;;
64011;SDS011;50211;52.768;12.124;2023-03-31T17:56:44;2.63;;;1.40;;
64011;SDS011;50211;52.768;12.124;2023-03-31T17:59:13;4.80;;;1.70;;
64011;SDS011;50211;52.768;12.124;2023-03-31T18:01:38;2.35;;;1.30;;
64011;SDS011;50211;52.768;12.124;2023-03-31T18:04:04;3.67;;;1.52;;
64011;SDS011;50211;52.768;12.124;2023-03-31T18:06:29;2.17;;;1.50;;
64011;SDS011;50211;52.768;12.124;2023-03-31T18:08:55;3.27;;;1.90;;
64011;SDS011;50211;52.768;12.124;2023-03-31T18:11:21;2.72;;;2.00;;
64011;SDS011;50211;52.768;12.124;2023-03-31T18:13:47;30.20;;;13.88;;
64011;SDS011;50211;52.768;12.124;2023-03-31T18:16:13;45.33;;;15.82;;
64011;SDS011;50211;52.768;12.124;2023-03-31T18:18:39;702.60;;;270.37;;
64011;SDS011;50211;52.768;12.124;2023-03-31T18:21:06;738.80;;;237.77;;
64011;SDS011;50211;52.768;12.124;2023-03-31T18:23:33;1570.90;;;591.00;;
64011;SDS011;50211;52.768;12.124;2023-03-31T18:26:00;804.33;;;298.15;;